Butuan, Philippines
Current Conditions -  °F | °C
As of 8:00 PM on Friday 31 Oct 2014 (Local Time) from RPMD Reporting Station
Thunderstorm Thunderstorm  
Wind Chill: 77°   Ceiling: 8000
Heat Index: 78°   Visibility: 1.6mi
Dew Point: 77°   Wind: 8mph
Humidity: 100%   Direction: 360°N
Pressure: 29.8"   Gusts: NA
Location:  8.93°N, 125.52°E
Report Text: RPMD 311200Z 36007KT 2600 -TSRA SCT015CB OVC080 25/25 Q1009 RMK A2980 CB ALL QDS
Loading
Personal Weather Stations






























Interactive Weather Map
Tropical Storm Tracking
New forecast layout! Learn more

10-Day Weather Forecast

Advertisements
Track Severe Weather on mobile